Domov               UVHVVR             MKGP            O straneh              
ZDRAVSTVENO VARSTVO RASTLIN
  MREŽA AGROMET. POSTAJ
 ► PROGNOSTIČNA OBVESTILA
AGROMETEOROLOŠKI PODATKI -
ARSO
OBVLADOVANJE TVEGANJ ZARADI
NEUGODNIH VREMENSKIH RAZMER
  ► NARAVNE NESREČE
  ► SUŠA/MOČA
  ► NAMAKANJE
  ► ŽLED (gozdarstvo)
KARTOGRAFSKI PRIKAZI
SPLETNE POVEZAVE
PROJEKTI IN PUBLIKACIJE

AGROMETEOROLOŠKA MREŽA: VREMENSKE POSTAJE IN FENOLOŠKA OPAZOVANJA

Pregled podatkov za lokacijo Čelje, meteorološka postaja 37797

Pregled senzorjev na lokaciji

ID Ime Zadnja
vrednost
Datum
zadnje
spremembe
Tip
senzorja
1815 Omočenost lista (U) 0 U 23.3.2019 00:00 A730WET
1812 Padavine (mm) 0 mm 23.3.2019 00:00 Rain-O-Matic
1814 Relativna vlaga 2 m (% RH) 39,49 % RH 22.3.2019 23:59 50YA
1813 Temperatura 2 m (°C) 9,33 °C 22.3.2019 23:59 50YA

Pregled podatkov zadnjih 24 ur

Zap.
št.
Datum in čas Čelje
Omočenost
lista
Padavine Relativna
vlaga
2
m
Temperatura
2
m
1 22.3.2019 23:30
2 22.3.2019 23:00 0 0 39,5 9,3
3 22.3.2019 22:30 0 0 38,6 9,7
4 22.3.2019 22:00 0 0 38,1 9,7
5 22.3.2019 21:30 0 0 37,9 9,9
6 22.3.2019 21:00 0 0 36,6 10,2
7 22.3.2019 20:30 0 0 34,7 10,6
8 22.3.2019 20:00 0 0 33,6 10,8
9 22.3.2019 19:30 0 0 31,7 11,3
10 22.3.2019 19:00 0 0 30,8 11,6
11 22.3.2019 18:30 0 0 30,7 12,1
12 22.3.2019 18:00 0 0 29,6 13,1
13 22.3.2019 17:30 0 0 27,6 14,3
14 22.3.2019 17:00 0 0 25,7 15,2
15 22.3.2019 16:30 0 0 22 16,4
16 22.3.2019 16:00 0 0 19,9 17,2
17 22.3.2019 15:30 0 0 21,2 17,4
18 22.3.2019 15:00 0 0 22,4 18,1
19 22.3.2019 14:30 0 0 22,6 17,8
20 22.3.2019 14:00 0 0 20,8 17,9
21 22.3.2019 13:30 0 0 21,4 17,8
22 22.3.2019 13:00 0 0 20 17,3
23 22.3.2019 12:30 0 0 18,9 16,6
24 22.3.2019 12:00 0 0 21,9 15,9
25 22.3.2019 11:30 0 0 22 15,5
26 22.3.2019 11:00 0 0 24 15,1
27 22.3.2019 10:30 0 0 26,3 14,6
28 22.3.2019 10:00 0 0 31 13,3
29 22.3.2019 09:30 0 0 36 11,6
30 22.3.2019 09:00 0 0 38,1 10,5
31 22.3.2019 08:30 0 0 42,4 9,2
32 22.3.2019 08:00 0 0 46,4 7,5
33 22.3.2019 07:30 0 0 49,1 6,2
34 22.3.2019 07:00 0 0 52,6 4,8
35 22.3.2019 06:30 0 0 53,7 4,2
36 22.3.2019 06:00 0 0 53,2 4,3
37 22.3.2019 05:30 0 0 53,4 4,3
38 22.3.2019 05:00 0 0 53,9 4,2
39 22.3.2019 04:30 0 0 53,7 4,3
40 22.3.2019 04:00 0 0 52,7 4,5
41 22.3.2019 03:30 0 0 51,9 4,7
42 22.3.2019 03:00 0 0 52,1 4,7
43 22.3.2019 02:30 0 0 49,6 5,2
44 22.3.2019 02:00 0 0 48 5,5
45 22.3.2019 01:30 0 0 48,6 5,3
46 22.3.2019 01:00 0 0 47,2 5,8
47 22.3.2019 00:30 0 0 47,3 5,9
48 22.3.2019 00:00 0 0 47,1 6,1
© 2011 Ministrstvo za kmetijstvo, gozdarstvo in prehrano. Vse pravice pridržane.